sensor_id;sensor_type;location;lat;lon;timestamp;P1;durP1;ratioP1;P2;durP2;ratioP2
10845;SDS011;5476;51.540;7.186;2022-08-03T00:01:03;5.38;;;4.35;;
10845;SDS011;5476;51.540;7.186;2022-08-03T00:03:31;5.05;;;4.00;;
10845;SDS011;5476;51.540;7.186;2022-08-03T00:05:58;5.18;;;3.95;;
10845;SDS011;5476;51.540;7.186;2022-08-03T00:08:27;5.78;;;4.28;;
10845;SDS011;5476;51.540;7.186;2022-08-03T00:10:54;4.35;;;3.90;;
10845;SDS011;5476;51.540;7.186;2022-08-03T00:13:21;6.07;;;4.07;;
10845;SDS011;5476;51.540;7.186;2022-08-03T00:15:48;4.28;;;3.88;;
10845;SDS011;5476;51.540;7.186;2022-08-03T00:18:15;4.15;;;3.75;;
10845;SDS011;5476;51.540;7.186;2022-08-03T00:20:42;4.72;;;4.10;;
10845;SDS011;5476;51.540;7.186;2022-08-03T00:23:09;5.22;;;4.03;;
10845;SDS011;5476;51.540;7.186;2022-08-03T00:25:37;4.75;;;4.10;;
10845;SDS011;5476;51.540;7.186;2022-08-03T00:28:04;4.38;;;3.97;;
10845;SDS011;5476;51.540;7.186;2022-08-03T00:30:31;5.97;;;3.90;;
10845;SDS011;5476;51.540;7.186;2022-08-03T00:32:59;6.68;;;3.92;;
10845;SDS011;5476;51.540;7.186;2022-08-03T00:35:26;4.50;;;4.10;;
10845;SDS011;5476;51.540;7.186;2022-08-03T00:37:53;5.90;;;4.40;;
10845;SDS011;5476;51.540;7.186;2022-08-03T00:40:22;4.10;;;3.70;;
10845;SDS011;5476;51.540;7.186;2022-08-03T00:42:52;6.78;;;4.05;;
10845;SDS011;5476;51.540;7.186;2022-08-03T00:45:21;6.63;;;3.85;;
10845;SDS011;5476;51.540;7.186;2022-08-03T00:47:50;4.95;;;4.35;;
10845;SDS011;5476;51.540;7.186;2022-08-03T00:50:17;6.55;;;3.92;;
10845;SDS011;5476;51.540;7.186;2022-08-03T00:52:47;6.00;;;4.07;;
10845;SDS011;5476;51.540;7.186;2022-08-03T00:55:14;4.25;;;3.78;;
10845;SDS011;5476;51.540;7.186;2022-08-03T00:57:42;6.25;;;4.03;;
10845;SDS011;5476;51.540;7.186;2022-08-03T01:00:11;6.38;;;4.03;;
10845;SDS011;5476;51.540;7.186;2022-08-03T01:02:39;4.65;;;3.90;;
10845;SDS011;5476;51.540;7.186;2022-08-03T01:05:07;4.30;;;3.85;;
10845;SDS011;5476;51.540;7.186;2022-08-03T01:07:37;6.47;;;4.22;;
10845;SDS011;5476;51.540;7.186;2022-08-03T01:10:12;4.05;;;3.60;;
10845;SDS011;5476;51.540;7.186;2022-08-03T01:12:47;5.10;;;3.67;;
10845;SDS011;5476;51.540;7.186;2022-08-03T01:15:24;4.40;;;3.85;;
10845;SDS011;5476;51.540;7.186;2022-08-03T01:17:58;4.85;;;3.97;;
10845;SDS011;5476;51.540;7.186;2022-08-03T01:20:30;4.35;;;3.95;;
10845;SDS011;5476;51.540;7.186;2022-08-03T01:26:02;5.50;;;3.88;;
10845;SDS011;5476;51.540;7.186;2022-08-03T01:28:44;6.13;;;3.90;;
10845;SDS011;5476;51.540;7.186;2022-08-03T01:31:25;5.53;;;3.78;;
10845;SDS011;5476;51.540;7.186;2022-08-03T01:33:55;4.35;;;3.63;;
10845;SDS011;5476;51.540;7.186;2022-08-03T01:36:28;5.70;;;3.83;;
10845;SDS011;5476;51.540;7.186;2022-08-03T01:38:58;5.15;;;3.95;;
10845;SDS011;5476;51.540;7.186;2022-08-03T01:41:28;4.28;;;3.88;;
10845;SDS011;5476;51.540;7.186;2022-08-03T01:43:58;3.60;;;3.30;;
10845;SDS011;5476;51.540;7.186;2022-08-03T01:46:28;6.32;;;3.35;;
10845;SDS011;5476;51.540;7.186;2022-08-03T01:48:56;4.90;;;3.35;;
10845;SDS011;5476;51.540;7.186;2022-08-03T01:51:23;6.00;;;3.58;;
10845;SDS011;5476;51.540;7.186;2022-08-03T01:53:50;4.28;;;3.47;;
10845;SDS011;5476;51.540;7.186;2022-08-03T01:56:19;4.30;;;3.35;;
10845;SDS011;5476;51.540;7.186;2022-08-03T01:58:50;5.60;;;3.70;;
10845;SDS011;5476;51.540;7.186;2022-08-03T02:01:19;6.50;;;3.50;;
10845;SDS011;5476;51.540;7.186;2022-08-03T02:03:49;3.85;;;3.47;;
10845;SDS011;5476;51.540;7.186;2022-08-03T02:06:17;3.28;;;2.97;;
10845;SDS011;5476;51.540;7.186;2022-08-03T02:08:46;3.80;;;3.50;;
10845;SDS011;5476;51.540;7.186;2022-08-03T02:11:16;3.42;;;3.13;;
10845;SDS011;5476;51.540;7.186;2022-08-03T02:13:43;5.10;;;3.40;;
10845;SDS011;5476;51.540;7.186;2022-08-03T02:16:12;5.15;;;3.33;;
10845;SDS011;5476;51.540;7.186;2022-08-03T02:18:40;7.45;;;3.92;;
10845;SDS011;5476;51.540;7.186;2022-08-03T02:21:09;4.05;;;3.45;;
10845;SDS011;5476;51.540;7.186;2022-08-03T02:23:38;4.03;;;3.30;;
10845;SDS011;5476;51.540;7.186;2022-08-03T02:26:07;4.13;;;3.72;;
10845;SDS011;5476;51.540;7.186;2022-08-03T02:28:39;6.10;;;3.97;;
10845;SDS011;5476;51.540;7.186;2022-08-03T02:31:10;4.47;;;3.78;;
10845;SDS011;5476;51.540;7.186;2022-08-03T02:33:41;4.15;;;3.63;;
10845;SDS011;5476;51.540;7.186;2022-08-03T02:36:10;5.85;;;3.40;;
10845;SDS011;5476;51.540;7.186;2022-08-03T02:38:41;3.88;;;3.45;;
10845;SDS011;5476;51.540;7.186;2022-08-03T02:41:12;5.65;;;4.07;;
10845;SDS011;5476;51.540;7.186;2022-08-03T02:43:42;5.93;;;3.65;;
10845;SDS011;5476;51.540;7.186;2022-08-03T02:46:12;6.05;;;3.20;;
10845;SDS011;5476;51.540;7.186;2022-08-03T02:48:42;4.78;;;3.40;;
10845;SDS011;5476;51.540;7.186;2022-08-03T02:51:13;6.22;;;3.70;;
10845;SDS011;5476;51.540;7.186;2022-08-03T02:53:42;6.03;;;4.15;;
10845;SDS011;5476;51.540;7.186;2022-08-03T02:56:11;3.95;;;3.50;;
10845;SDS011;5476;51.540;7.186;2022-08-03T02:58:39;4.88;;;3.92;;
10845;SDS011;5476;51.540;7.186;2022-08-03T03:01:09;6.00;;;3.92;;
10845;SDS011;5476;51.540;7.186;2022-08-03T03:03:36;4.15;;;3.75;;
10845;SDS011;5476;51.540;7.186;2022-08-03T03:06:05;5.88;;;3.85;;
10845;SDS011;5476;51.540;7.186;2022-08-03T03:08:34;5.72;;;3.90;;
10845;SDS011;5476;51.540;7.186;2022-08-03T03:11:02;6.43;;;3.92;;
10845;SDS011;5476;51.540;7.186;2022-08-03T03:13:30;3.72;;;3.42;;
10845;SDS011;5476;51.540;7.186;2022-08-03T03:15:59;6.50;;;3.65;;
10845;SDS011;5476;51.540;7.186;2022-08-03T03:18:27;5.75;;;3.83;;
10845;SDS011;5476;51.540;7.186;2022-08-03T03:20:56;6.90;;;3.95;;
10845;SDS011;5476;51.540;7.186;2022-08-03T03:23:24;6.55;;;3.95;;
10845;SDS011;5476;51.540;7.186;2022-08-03T03:25:54;6.30;;;4.05;;
10845;SDS011;5476;51.540;7.186;2022-08-03T03:28:23;4.65;;;4.15;;
10845;SDS011;5476;51.540;7.186;2022-08-03T03:30:50;5.70;;;3.97;;
10845;SDS011;5476;51.540;7.186;2022-08-03T03:33:17;7.47;;;4.40;;
10845;SDS011;5476;51.540;7.186;2022-08-03T03:35:44;7.82;;;4.18;;
10845;SDS011;5476;51.540;7.186;2022-08-03T03:38:12;7.75;;;4.47;;
10845;SDS011;5476;51.540;7.186;2022-08-03T03:40:39;7.75;;;4.38;;
10845;SDS011;5476;51.540;7.186;2022-08-03T03:43:08;7.32;;;4.15;;
10845;SDS011;5476;51.540;7.186;2022-08-03T03:45:36;5.43;;;4.25;;
10845;SDS011;5476;51.540;7.186;2022-08-03T03:48:06;7.03;;;4.05;;
10845;SDS011;5476;51.540;7.186;2022-08-03T03:50:34;5.30;;;4.15;;
10845;SDS011;5476;51.540;7.186;2022-08-03T03:53:07;6.93;;;4.57;;
10845;SDS011;5476;51.540;7.186;2022-08-03T03:55:35;6.18;;;4.13;;
10845;SDS011;5476;51.540;7.186;2022-08-03T03:58:02;5.65;;;4.30;;
10845;SDS011;5476;51.540;7.186;2022-08-03T04:00:30;5.65;;;4.35;;
10845;SDS011;5476;51.540;7.186;2022-08-03T04:02:57;4.60;;;4.10;;
10845;SDS011;5476;51.540;7.186;2022-08-03T04:05:24;5.22;;;4.30;;
10845;SDS011;5476;51.540;7.186;2022-08-03T04:08:09;6.20;;;4.72;;
10845;SDS011;5476;51.540;7.186;2022-08-03T04:11:01;4.70;;;4.18;;
10845;SDS011;5476;51.540;7.186;2022-08-03T04:13:32;5.22;;;4.72;;
10845;SDS011;5476;51.540;7.186;2022-08-03T04:16:03;7.70;;;4.88;;
10845;SDS011;5476;51.540;7.186;2022-08-03T04:18:33;6.03;;;4.60;;
10845;SDS011;5476;51.540;7.186;2022-08-03T04:21:08;6.78;;;4.70;;
10845;SDS011;5476;51.540;7.186;2022-08-03T04:23:39;5.78;;;4.15;;
10845;SDS011;5476;51.540;7.186;2022-08-03T04:26:10;5.07;;;4.57;;
10845;SDS011;5476;51.540;7.186;2022-08-03T04:28:40;5.10;;;4.15;;
10845;SDS011;5476;51.540;7.186;2022-08-03T04:31:11;6.38;;;4.22;;
10845;SDS011;5476;51.540;7.186;2022-08-03T04:33:39;5.10;;;4.00;;
10845;SDS011;5476;51.540;7.186;2022-08-03T04:36:09;4.57;;;4.10;;
10845;SDS011;5476;51.540;7.186;2022-08-03T04:38:43;5.28;;;4.25;;
10845;SDS011;5476;51.540;7.186;2022-08-03T04:41:25;6.05;;;4.25;;
10845;SDS011;5476;51.540;7.186;2022-08-03T04:43:54;4.50;;;4.00;;
10845;SDS011;5476;51.540;7.186;2022-08-03T04:46:25;5.07;;;4.20;;
10845;SDS011;5476;51.540;7.186;2022-08-03T04:48:54;5.55;;;4.30;;
10845;SDS011;5476;51.540;7.186;2022-08-03T04:51:21;4.40;;;4.00;;
10845;SDS011;5476;51.540;7.186;2022-08-03T04:53:49;7.95;;;4.63;;
10845;SDS011;5476;51.540;7.186;2022-08-03T04:56:16;7.13;;;4.05;;
10845;SDS011;5476;51.540;7.186;2022-08-03T04:58:43;5.05;;;4.38;;
10845;SDS011;5476;51.540;7.186;2022-08-03T05:01:10;5.05;;;4.18;;
10845;SDS011;5476;51.540;7.186;2022-08-03T05:03:39;4.65;;;4.10;;
10845;SDS011;5476;51.540;7.186;2022-08-03T05:06:06;5.07;;;4.43;;
10845;SDS011;5476;51.540;7.186;2022-08-03T05:08:34;6.35;;;4.15;;
10845;SDS011;5476;51.540;7.186;2022-08-03T05:11:01;6.53;;;4.63;;
10845;SDS011;5476;51.540;7.186;2022-08-03T05:13:27;4.90;;;4.10;;
10845;SDS011;5476;51.540;7.186;2022-08-03T05:15:54;6.90;;;4.63;;
10845;SDS011;5476;51.540;7.186;2022-08-03T05:18:21;6.32;;;4.45;;
10845;SDS011;5476;51.540;7.186;2022-08-03T05:20:49;5.38;;;4.15;;
10845;SDS011;5476;51.540;7.186;2022-08-03T05:23:17;6.68;;;4.25;;
10845;SDS011;5476;51.540;7.186;2022-08-03T05:25:44;7.05;;;4.20;;
10845;SDS011;5476;51.540;7.186;2022-08-03T05:28:11;5.80;;;4.13;;
10845;SDS011;5476;51.540;7.186;2022-08-03T05:30:37;6.15;;;3.97;;
10845;SDS011;5476;51.540;7.186;2022-08-03T05:33:04;6.10;;;4.07;;
10845;SDS011;5476;51.540;7.186;2022-08-03T05:35:31;6.20;;;4.22;;
10845;SDS011;5476;51.540;7.186;2022-08-03T05:38:00;6.20;;;4.05;;
10845;SDS011;5476;51.540;7.186;2022-08-03T05:40:27;5.75;;;4.03;;
10845;SDS011;5476;51.540;7.186;2022-08-03T05:42:54;4.60;;;3.83;;
10845;SDS011;5476;51.540;7.186;2022-08-03T05:45:21;5.30;;;4.15;;
10845;SDS011;5476;51.540;7.186;2022-08-03T05:47:48;5.03;;;3.85;;
10845;SDS011;5476;51.540;7.186;2022-08-03T05:50:16;5.47;;;3.90;;
10845;SDS011;5476;51.540;7.186;2022-08-03T05:52:44;9.52;;;3.75;;
10845;SDS011;5476;51.540;7.186;2022-08-03T05:55:12;9.00;;;4.40;;
10845;SDS011;5476;51.540;7.186;2022-08-03T05:57:39;5.97;;;4.05;;
10845;SDS011;5476;51.540;7.186;2022-08-03T06:00:08;6.28;;;3.90;;
10845;SDS011;5476;51.540;7.186;2022-08-03T06:02:36;4.88;;;4.03;;
10845;SDS011;5476;51.540;7.186;2022-08-03T06:05:04;4.85;;;3.67;;
10845;SDS011;5476;51.540;7.186;2022-08-03T06:07:32;7.18;;;3.45;;
10845;SDS011;5476;51.540;7.186;2022-08-03T06:09:59;5.50;;;3.80;;
10845;SDS011;5476;51.540;7.186;2022-08-03T06:12:28;4.88;;;3.67;;
10845;SDS011;5476;51.540;7.186;2022-08-03T06:14:55;5.85;;;3.72;;
10845;SDS011;5476;51.540;7.186;2022-08-03T06:17:22;4.28;;;3.88;;
10845;SDS011;5476;51.540;7.186;2022-08-03T06:19:50;7.40;;;3.80;;
10845;SDS011;5476;51.540;7.186;2022-08-03T06:22:18;5.20;;;3.40;;
10845;SDS011;5476;51.540;7.186;2022-08-03T06:24:45;9.35;;;4.00;;
10845;SDS011;5476;51.540;7.186;2022-08-03T06:27:12;6.05;;;4.55;;
10845;SDS011;5476;51.540;7.186;2022-08-03T06:29:40;4.68;;;4.00;;
10845;SDS011;5476;51.540;7.186;2022-08-03T06:32:07;12.50;;;3.97;;
10845;SDS011;5476;51.540;7.186;2022-08-03T06:34:34;5.75;;;3.38;;
10845;SDS011;5476;51.540;7.186;2022-08-03T06:37:01;5.28;;;3.42;;
10845;SDS011;5476;51.540;7.186;2022-08-03T06:39:29;4.97;;;3.97;;
10845;SDS011;5476;51.540;7.186;2022-08-03T06:41:56;5.78;;;3.78;;
10845;SDS011;5476;51.540;7.186;2022-08-03T06:44:23;6.25;;;3.72;;
10845;SDS011;5476;51.540;7.186;2022-08-03T06:46:51;6.65;;;4.03;;
10845;SDS011;5476;51.540;7.186;2022-08-03T06:49:18;9.27;;;3.67;;
10845;SDS011;5476;51.540;7.186;2022-08-03T06:51:45;4.35;;;3.50;;
10845;SDS011;5476;51.540;7.186;2022-08-03T06:54:14;7.45;;;3.92;;
10845;SDS011;5476;51.540;7.186;2022-08-03T06:56:41;5.53;;;3.53;;
10845;SDS011;5476;51.540;7.186;2022-08-03T06:59:08;6.78;;;3.53;;
10845;SDS011;5476;51.540;7.186;2022-08-03T07:01:35;4.05;;;3.65;;
10845;SDS011;5476;51.540;7.186;2022-08-03T07:04:04;4.75;;;3.40;;
10845;SDS011;5476;51.540;7.186;2022-08-03T07:06:31;5.95;;;3.17;;
10845;SDS011;5476;51.540;7.186;2022-08-03T07:08:58;6.35;;;3.78;;
10845;SDS011;5476;51.540;7.186;2022-08-03T07:11:25;6.45;;;3.85;;
10845;SDS011;5476;51.540;7.186;2022-08-03T07:13:52;5.32;;;3.17;;
10845;SDS011;5476;51.540;7.186;2022-08-03T07:16:20;7.85;;;3.50;;
10845;SDS011;5476;51.540;7.186;2022-08-03T07:18:47;15.27;;;5.10;;
10845;SDS011;5476;51.540;7.186;2022-08-03T07:21:15;4.78;;;3.25;;
10845;SDS011;5476;51.540;7.186;2022-08-03T07:23:42;5.68;;;3.15;;
10845;SDS011;5476;51.540;7.186;2022-08-03T07:26:09;4.57;;;2.92;;
10845;SDS011;5476;51.540;7.186;2022-08-03T07:28:37;8.00;;;3.00;;
10845;SDS011;5476;51.540;7.186;2022-08-03T07:31:04;5.22;;;3.08;;
10845;SDS011;5476;51.540;7.186;2022-08-03T07:33:32;3.65;;;2.80;;
10845;SDS011;5476;51.540;7.186;2022-08-03T07:35:59;4.93;;;2.78;;
10845;SDS011;5476;51.540;7.186;2022-08-03T07:38:27;2.67;;;2.47;;
10845;SDS011;5476;51.540;7.186;2022-08-03T07:40:54;4.18;;;3.03;;
10845;SDS011;5476;51.540;7.186;2022-08-03T07:43:21;6.43;;;2.65;;
10845;SDS011;5476;51.540;7.186;2022-08-03T07:45:49;8.07;;;3.22;;
10845;SDS011;5476;51.540;7.186;2022-08-03T07:48:16;3.55;;;2.72;;
10845;SDS011;5476;51.540;7.186;2022-08-03T07:50:43;4.35;;;3.00;;
10845;SDS011;5476;51.540;7.186;2022-08-03T07:53:10;4.10;;;2.60;;
10845;SDS011;5476;51.540;7.186;2022-08-03T07:55:38;3.70;;;2.60;;
10845;SDS011;5476;51.540;7.186;2022-08-03T07:58:06;5.47;;;2.80;;
10845;SDS011;5476;51.540;7.186;2022-08-03T08:00:36;5.22;;;2.90;;
10845;SDS011;5476;51.540;7.186;2022-08-03T08:03:04;3.70;;;2.70;;
10845;SDS011;5476;51.540;7.186;2022-08-03T08:05:31;4.45;;;2.65;;
10845;SDS011;5476;51.540;7.186;2022-08-03T08:07:58;5.57;;;2.92;;
10845;SDS011;5476;51.540;7.186;2022-08-03T08:10:25;5.35;;;2.78;;
10845;SDS011;5476;51.540;7.186;2022-08-03T08:12:54;3.88;;;2.92;;
10845;SDS011;5476;51.540;7.186;2022-08-03T08:15:22;4.93;;;2.67;;
10845;SDS011;5476;51.540;7.186;2022-08-03T08:17:49;4.20;;;2.70;;
10845;SDS011;5476;51.540;7.186;2022-08-03T08:20:18;3.78;;;2.67;;
10845;SDS011;5476;51.540;7.186;2022-08-03T08:22:45;4.90;;;3.00;;
10845;SDS011;5476;51.540;7.186;2022-08-03T08:25:12;4.25;;;2.65;;
10845;SDS011;5476;51.540;7.186;2022-08-03T08:27:40;3.72;;;2.92;;
10845;SDS011;5476;51.540;7.186;2022-08-03T08:30:10;4.50;;;2.55;;
10845;SDS011;5476;51.540;7.186;2022-08-03T08:32:38;2.80;;;2.50;;
10845;SDS011;5476;51.540;7.186;2022-08-03T08:35:05;5.63;;;2.70;;
10845;SDS011;5476;51.540;7.186;2022-08-03T08:37:34;6.68;;;3.10;;
10845;SDS011;5476;51.540;7.186;2022-08-03T08:40:01;5.00;;;3.38;;
10845;SDS011;5476;51.540;7.186;2022-08-03T08:42:29;5.15;;;2.75;;
10845;SDS011;5476;51.540;7.186;2022-08-03T08:44:57;4.22;;;2.90;;
10845;SDS011;5476;51.540;7.186;2022-08-03T08:47:28;6.55;;;2.78;;
10845;SDS011;5476;51.540;7.186;2022-08-03T08:49:57;4.13;;;2.65;;
10845;SDS011;5476;51.540;7.186;2022-08-03T08:52:26;5.18;;;3.13;;
10845;SDS011;5476;51.540;7.186;2022-08-03T08:54:54;4.70;;;2.80;;
10845;SDS011;5476;51.540;7.186;2022-08-03T08:57:25;3.80;;;2.60;;
10845;SDS011;5476;51.540;7.186;2022-08-03T08:59:55;4.07;;;2.60;;
10845;SDS011;5476;51.540;7.186;2022-08-03T09:02:23;4.43;;;2.97;;
10845;SDS011;5476;51.540;7.186;2022-08-03T09:04:52;5.10;;;2.88;;
10845;SDS011;5476;51.540;7.186;2022-08-03T09:07:19;4.00;;;2.65;;
10845;SDS011;5476;51.540;7.186;2022-08-03T09:09:46;5.15;;;2.70;;
10845;SDS011;5476;51.540;7.186;2022-08-03T09:12:13;4.07;;;2.60;;
10845;SDS011;5476;51.540;7.186;2022-08-03T09:14:40;2.80;;;2.60;;
10845;SDS011;5476;51.540;7.186;2022-08-03T09:17:07;5.53;;;2.90;;
10845;SDS011;5476;51.540;7.186;2022-08-03T09:19:34;3.08;;;2.40;;
10845;SDS011;5476;51.540;7.186;2022-08-03T09:22:09;5.10;;;2.83;;
10845;SDS011;5476;51.540;7.186;2022-08-03T09:24:38;4.18;;;2.13;;
10845;SDS011;5476;51.540;7.186;2022-08-03T09:27:20;8.38;;;2.50;;
10845;SDS011;5476;51.540;7.186;2022-08-03T09:29:47;3.22;;;2.53;;
10845;SDS011;5476;51.540;7.186;2022-08-03T09:32:18;5.78;;;2.50;;
10845;SDS011;5476;51.540;7.186;2022-08-03T09:34:45;2.95;;;2.30;;
10845;SDS011;5476;51.540;7.186;2022-08-03T09:37:15;3.67;;;2.30;;
10845;SDS011;5476;51.540;7.186;2022-08-03T09:39:43;5.22;;;2.38;;
10845;SDS011;5476;51.540;7.186;2022-08-03T09:42:11;2.80;;;2.35;;
10845;SDS011;5476;51.540;7.186;2022-08-03T09:44:40;4.75;;;2.50;;
10845;SDS011;5476;51.540;7.186;2022-08-03T09:47:08;4.80;;;2.30;;
10845;SDS011;5476;51.540;7.186;2022-08-03T09:49:36;3.92;;;2.50;;
10845;SDS011;5476;51.540;7.186;2022-08-03T09:52:16;2.90;;;2.60;;
10845;SDS011;5476;51.540;7.186;2022-08-03T09:54:49;3.75;;;2.00;;
10845;SDS011;5476;51.540;7.186;2022-08-03T09:57:21;2.40;;;2.10;;
10845;SDS011;5476;51.540;7.186;2022-08-03T09:59:49;3.78;;;2.10;;
10845;SDS011;5476;51.540;7.186;2022-08-03T10:02:20;3.25;;;2.47;;
10845;SDS011;5476;51.540;7.186;2022-08-03T10:04:48;3.80;;;2.35;;
10845;SDS011;5476;51.540;7.186;2022-08-03T10:07:19;4.85;;;2.30;;
10845;SDS011;5476;51.540;7.186;2022-08-03T10:09:53;3.78;;;2.40;;
10845;SDS011;5476;51.540;7.186;2022-08-03T10:12:23;5.70;;;2.92;;
10845;SDS011;5476;51.540;7.186;2022-08-03T10:14:50;8.13;;;4.53;;
10845;SDS011;5476;51.540;7.186;2022-08-03T10:17:18;4.38;;;2.90;;
10845;SDS011;5476;51.540;7.186;2022-08-03T10:19:46;23.70;;;7.38;;
10845;SDS011;5476;51.540;7.186;2022-08-03T10:22:15;5.50;;;3.28;;
10845;SDS011;5476;51.540;7.186;2022-08-03T10:24:48;4.80;;;2.35;;
10845;SDS011;5476;51.540;7.186;2022-08-03T10:27:19;3.63;;;2.47;;
10845;SDS011;5476;51.540;7.186;2022-08-03T10:29:49;3.65;;;2.45;;
10845;SDS011;5476;51.540;7.186;2022-08-03T10:32:20;4.38;;;2.53;;
10845;SDS011;5476;51.540;7.186;2022-08-03T10:34:51;5.40;;;2.80;;
10845;SDS011;5476;51.540;7.186;2022-08-03T10:37:25;5.65;;;2.40;;
10845;SDS011;5476;51.540;7.186;2022-08-03T10:39:55;3.42;;;2.60;;
10845;SDS011;5476;51.540;7.186;2022-08-03T10:42:25;2.92;;;2.42;;
10845;SDS011;5476;51.540;7.186;2022-08-03T10:44:59;5.07;;;2.15;;
10845;SDS011;5476;51.540;7.186;2022-08-03T10:47:29;6.50;;;2.25;;
10845;SDS011;5476;51.540;7.186;2022-08-03T10:49:56;4.60;;;2.35;;
10845;SDS011;5476;51.540;7.186;2022-08-03T10:52:24;5.50;;;2.03;;
10845;SDS011;5476;51.540;7.186;2022-08-03T10:54:51;5.07;;;2.28;;
10845;SDS011;5476;51.540;7.186;2022-08-03T10:57:44;4.43;;;2.20;;
10845;SDS011;5476;51.540;7.186;2022-08-03T11:00:14;7.43;;;2.35;;
10845;SDS011;5476;51.540;7.186;2022-08-03T11:05:28;6.35;;;2.65;;
10845;SDS011;5476;51.540;7.186;2022-08-03T11:10:44;5.60;;;2.50;;
10845;SDS011;5476;51.540;7.186;2022-08-03T11:13:14;4.80;;;2.83;;
10845;SDS011;5476;51.540;7.186;2022-08-03T11:15:43;5.07;;;2.33;;
10845;SDS011;5476;51.540;7.186;2022-08-03T11:18:12;4.88;;;2.20;;
10845;SDS011;5476;51.540;7.186;2022-08-03T11:20:43;4.40;;;2.20;;
10845;SDS011;5476;51.540;7.186;2022-08-03T11:23:11;8.10;;;2.72;;
10845;SDS011;5476;51.540;7.186;2022-08-03T11:28:35;5.30;;;2.67;;
10845;SDS011;5476;51.540;7.186;2022-08-03T11:34:14;6.93;;;2.90;;
10845;SDS011;5476;51.540;7.186;2022-08-03T11:39:48;4.72;;;2.40;;
10845;SDS011;5476;51.540;7.186;2022-08-03T11:45:10;5.68;;;2.88;;
10845;SDS011;5476;51.540;7.186;2022-08-03T11:47:38;4.97;;;2.58;;
10845;SDS011;5476;51.540;7.186;2022-08-03T11:50:07;6.68;;;2.47;;
10845;SDS011;5476;51.540;7.186;2022-08-03T11:52:35;5.05;;;2.67;;
10845;SDS011;5476;51.540;7.186;2022-08-03T11:55:13;6.55;;;2.30;;
10845;SDS011;5476;51.540;7.186;2022-08-03T11:57:44;4.38;;;2.47;;
10845;SDS011;5476;51.540;7.186;2022-08-03T12:00:20;4.60;;;2.50;;
10845;SDS011;5476;51.540;7.186;2022-08-03T12:02:58;4.38;;;2.65;;
10845;SDS011;5476;51.540;7.186;2022-08-03T12:05:34;4.55;;;2.20;;
10845;SDS011;5476;51.540;7.186;2022-08-03T12:08:06;6.13;;;2.45;;
10845;SDS011;5476;51.540;7.186;2022-08-03T12:10:34;4.60;;;2.63;;
10845;SDS011;5476;51.540;7.186;2022-08-03T12:13:02;5.18;;;2.40;;
10845;SDS011;5476;51.540;7.186;2022-08-03T12:15:34;5.72;;;2.42;;
10845;SDS011;5476;51.540;7.186;2022-08-03T12:18:03;7.85;;;2.38;;
10845;SDS011;5476;51.540;7.186;2022-08-03T12:20:38;4.47;;;2.60;;
10845;SDS011;5476;51.540;7.186;2022-08-03T12:23:05;4.40;;;2.55;;
10845;SDS011;5476;51.540;7.186;2022-08-03T12:25:33;4.45;;;2.30;;
10845;SDS011;5476;51.540;7.186;2022-08-03T12:28:06;4.82;;;2.38;;
10845;SDS011;5476;51.540;7.186;2022-08-03T12:30:36;5.32;;;2.40;;
10845;SDS011;5476;51.540;7.186;2022-08-03T12:33:11;5.20;;;2.47;;
10845;SDS011;5476;51.540;7.186;2022-08-03T12:35:39;3.50;;;1.90;;
10845;SDS011;5476;51.540;7.186;2022-08-03T12:38:06;5.72;;;2.17;;
10845;SDS011;5476;51.540;7.186;2022-08-03T12:40:33;4.55;;;1.98;;
10845;SDS011;5476;51.540;7.186;2022-08-03T12:43:00;2.63;;;1.95;;
10845;SDS011;5476;51.540;7.186;2022-08-03T12:45:37;4.00;;;2.00;;
10845;SDS011;5476;51.540;7.186;2022-08-03T12:48:08;3.28;;;2.05;;
10845;SDS011;5476;51.540;7.186;2022-08-03T12:50:36;4.28;;;2.00;;
10845;SDS011;5476;51.540;7.186;2022-08-03T12:53:06;4.15;;;1.65;;
10845;SDS011;5476;51.540;7.186;2022-08-03T12:55:33;4.13;;;1.83;;
10845;SDS011;5476;51.540;7.186;2022-08-03T12:58:01;4.68;;;1.92;;
10845;SDS011;5476;51.540;7.186;2022-08-03T13:00:30;3.28;;;1.90;;
10845;SDS011;5476;51.540;7.186;2022-08-03T13:03:02;3.50;;;1.60;;
10845;SDS011;5476;51.540;7.186;2022-08-03T13:05:31;3.40;;;1.90;;
10845;SDS011;5476;51.540;7.186;2022-08-03T13:08:16;4.07;;;1.92;;
10845;SDS011;5476;51.540;7.186;2022-08-03T13:10:43;4.50;;;1.98;;
10845;SDS011;5476;51.540;7.186;2022-08-03T13:13:10;3.35;;;1.67;;
10845;SDS011;5476;51.540;7.186;2022-08-03T13:15:37;3.85;;;1.63;;
10845;SDS011;5476;51.540;7.186;2022-08-03T13:18:05;2.70;;;1.65;;
10845;SDS011;5476;51.540;7.186;2022-08-03T13:20:32;2.72;;;1.80;;
10845;SDS011;5476;51.540;7.186;2022-08-03T13:22:59;3.00;;;2.15;;
10845;SDS011;5476;51.540;7.186;2022-08-03T13:25:26;5.90;;;1.92;;
10845;SDS011;5476;51.540;7.186;2022-08-03T13:27:53;3.97;;;2.20;;
10845;SDS011;5476;51.540;7.186;2022-08-03T13:30:20;4.32;;;2.00;;
10845;SDS011;5476;51.540;7.186;2022-08-03T13:32:47;5.22;;;1.83;;
10845;SDS011;5476;51.540;7.186;2022-08-03T13:35:15;4.70;;;2.00;;
10845;SDS011;5476;51.540;7.186;2022-08-03T13:37:42;3.13;;;1.92;;
10845;SDS011;5476;51.540;7.186;2022-08-03T13:40:10;3.33;;;1.80;;
10845;SDS011;5476;51.540;7.186;2022-08-03T13:42:37;5.15;;;2.03;;
10845;SDS011;5476;51.540;7.186;2022-08-03T13:45:04;3.50;;;1.73;;
10845;SDS011;5476;51.540;7.186;2022-08-03T13:47:32;3.05;;;1.70;;
10845;SDS011;5476;51.540;7.186;2022-08-03T13:50:00;5.30;;;1.75;;
10845;SDS011;5476;51.540;7.186;2022-08-03T13:52:32;3.25;;;1.92;;
10845;SDS011;5476;51.540;7.186;2022-08-03T13:55:00;2.97;;;1.83;;
10845;SDS011;5476;51.540;7.186;2022-08-03T13:57:28;2.30;;;1.73;;
10845;SDS011;5476;51.540;7.186;2022-08-03T13:59:55;3.92;;;1.90;;
10845;SDS011;5476;51.540;7.186;2022-08-03T14:02:22;6.50;;;1.85;;
10845;SDS011;5476;51.540;7.186;2022-08-03T14:04:49;3.70;;;2.03;;
10845;SDS011;5476;51.540;7.186;2022-08-03T14:07:16;3.25;;;1.92;;
10845;SDS011;5476;51.540;7.186;2022-08-03T14:09:45;2.85;;;1.60;;
10845;SDS011;5476;51.540;7.186;2022-08-03T14:12:12;2.50;;;1.73;;
10845;SDS011;5476;51.540;7.186;2022-08-03T14:14:39;4.32;;;2.20;;
10845;SDS011;5476;51.540;7.186;2022-08-03T14:17:06;3.40;;;2.15;;
10845;SDS011;5476;51.540;7.186;2022-08-03T14:19:33;5.85;;;2.20;;
10845;SDS011;5476;51.540;7.186;2022-08-03T14:22:00;3.08;;;1.90;;
10845;SDS011;5476;51.540;7.186;2022-08-03T14:24:26;4.03;;;2.13;;
10845;SDS011;5476;51.540;7.186;2022-08-03T14:26:55;3.88;;;1.80;;
10845;SDS011;5476;51.540;7.186;2022-08-03T14:29:22;3.25;;;2.10;;
10845;SDS011;5476;51.540;7.186;2022-08-03T14:31:48;2.28;;;1.80;;
10845;SDS011;5476;51.540;7.186;2022-08-03T14:34:15;4.85;;;2.00;;
10845;SDS011;5476;51.540;7.186;2022-08-03T14:36:42;3.08;;;1.70;;
10845;SDS011;5476;51.540;7.186;2022-08-03T14:39:11;3.70;;;1.95;;
10845;SDS011;5476;51.540;7.186;2022-08-03T14:41:38;3.40;;;1.80;;
10845;SDS011;5476;51.540;7.186;2022-08-03T14:44:06;4.93;;;1.77;;
10845;SDS011;5476;51.540;7.186;2022-08-03T14:46:33;2.63;;;1.60;;
10845;SDS011;5476;51.540;7.186;2022-08-03T14:49:00;4.40;;;2.33;;
10845;SDS011;5476;51.540;7.186;2022-08-03T14:51:29;4.35;;;2.08;;
10845;SDS011;5476;51.540;7.186;2022-08-03T14:53:56;3.08;;;1.70;;
10845;SDS011;5476;51.540;7.186;2022-08-03T14:56:23;5.60;;;2.33;;
10845;SDS011;5476;51.540;7.186;2022-08-03T14:58:49;4.20;;;2.03;;
10845;SDS011;5476;51.540;7.186;2022-08-03T15:01:18;5.15;;;2.00;;
10845;SDS011;5476;51.540;7.186;2022-08-03T15:03:45;5.28;;;1.95;;
10845;SDS011;5476;51.540;7.186;2022-08-03T15:06:12;3.97;;;1.73;;
10845;SDS011;5476;51.540;7.186;2022-08-03T15:08:39;4.78;;;2.38;;
10845;SDS011;5476;51.540;7.186;2022-08-03T15:11:06;2.97;;;2.05;;
10845;SDS011;5476;51.540;7.186;2022-08-03T15:13:33;5.88;;;2.45;;
10845;SDS011;5476;51.540;7.186;2022-08-03T15:16:00;3.83;;;1.92;;
10845;SDS011;5476;51.540;7.186;2022-08-03T15:18:28;3.15;;;1.80;;
10845;SDS011;5476;51.540;7.186;2022-08-03T15:20:55;7.63;;;2.75;;
10845;SDS011;5476;51.540;7.186;2022-08-03T15:23:22;3.63;;;2.13;;
10845;SDS011;5476;51.540;7.186;2022-08-03T15:25:50;5.75;;;2.47;;
10845;SDS011;5476;51.540;7.186;2022-08-03T15:28:17;3.00;;;2.25;;
10845;SDS011;5476;51.540;7.186;2022-08-03T15:30:45;5.65;;;2.20;;